Time;durP1;ratioP1;P1;durP2;ratioP2;P2;SDS_P1;SDS_P2;PMS_P1;PMS_P2;Temp;Humidity;BMP_temperature;BMP_pressure;BME280_temperature;BME280_humidity;BME280_pressure;Samples;Min_cycle;Max_cycle;Signal;HPM_P1;HPM_P2
2022/01/29 00:00:20;;;;;;;;;;;2.40;99.90;;;;;;5023337;28;20124;-72
2022/01/29 00:02:47;;;;;;;;;;;2.40;99.90;;;;;;5023408;28;19944;-72
2022/01/29 00:05:13;;;;;;;;;;;2.40;99.90;;;;;;5022996;28;19928;-72
2022/01/29 00:07:41;;;;;;;;;;;2.30;99.90;;;;;;5023571;28;19921;-72
2022/01/29 00:10:10;;;;;;;;;;;2.40;99.90;;;;;;5023240;28;19949;-72
2022/01/29 00:12:37;;;;;;;;;;;2.40;99.90;;;;;;5023399;28;19921;-72
2022/01/29 00:15:04;;;;;;;;;;;2.40;99.90;;;;;;5022920;28;19960;-72
2022/01/29 00:17:31;;;;;;;;;;;2.40;99.90;;;;;;5023514;28;19922;-72
2022/01/29 00:19:57;;;;;;;;;;;2.40;99.90;;;;;;5023059;28;19928;-72
2022/01/29 00:22:24;;;;;;;;;;;2.30;99.90;;;;;;5023371;28;19921;-72
2022/01/29 00:24:51;;;;;;;;;;;2.40;99.90;;;;;;5022941;28;19921;-72
2022/01/29 00:27:21;;;;;;;;;;;2.30;99.90;;;;;;5023143;28;19921;-72
2022/01/29 00:29:48;;;;;;;;;;;2.30;99.90;;;;;;5023246;28;20154;-72
2022/01/29 00:32:15;;;;;;;;;;;2.30;99.90;;;;;;5023060;28;19921;-73
2022/01/29 00:34:41;;;;;;;;;;;2.30;99.90;;;;;;5023153;28;19921;-72
2022/01/29 00:37:08;;;;;;;;;;;2.30;99.90;;;;;;5026977;28;19921;-72
2022/01/29 00:39:35;;;;;;;;;;;2.20;99.90;;;;;;5026728;28;19952;-72
2022/01/29 00:42:02;;;;;;;;;;;2.30;99.90;;;;;;5026758;28;19922;-72
2022/01/29 00:44:29;;;;;;;;;;;2.20;99.90;;;;;;5027059;28;19921;-72
2022/01/29 00:46:56;;;;;;;;;;;2.20;99.90;;;;;;5026737;28;19922;-72
2022/01/29 00:49:23;;;;;;;;;;;2.20;99.90;;;;;;5042613;28;19927;-72
2022/01/29 00:51:49;;;;;;;;;;;2.20;99.90;;;;;;5046490;28;20209;-72
2022/01/29 00:54:16;;;;;;;;;;;2.20;99.90;;;;;;5044885;28;19921;-72
2022/01/29 00:56:42;;;;;;;;;;;2.20;99.90;;;;;;5046356;28;19937;-72
2022/01/29 00:59:09;;;;;;;;;;;2.20;99.90;;;;;;5046465;28;19929;-72
2022/01/29 01:01:37;;;;;;;;;;;2.20;99.90;;;;;;5046407;28;19927;-72
2022/01/29 01:04:03;;;;;;;;;;;2.20;99.90;;;;;;5046040;28;19928;-72
2022/01/29 01:06:30;;;;;;;;;;;2.30;99.90;;;;;;5046347;28;19989;-72
2022/01/29 01:08:56;;;;;;;;;;;2.30;99.90;;;;;;5046276;28;19921;-72
2022/01/29 01:11:23;;;;;;;;;;;2.20;99.90;;;;;;5045939;28;19925;-72
2022/01/29 01:13:50;;;;;;;;;;;2.20;99.90;;;;;;5045962;28;20094;-72
2022/01/29 01:16:16;;;;;;;;;;;2.20;99.90;;;;;;5045975;28;19921;-72
2022/01/29 01:18:44;;;;;;;;;;;2.20;99.90;;;;;;5046347;28;19928;-72
2022/01/29 01:21:11;;;;;;;;;;;2.10;99.90;;;;;;5045964;28;20213;-72
2022/01/29 01:23:37;;;;;;;;;;;2.20;99.90;;;;;;5045725;28;19921;-72
2022/01/29 01:26:04;;;;;;;;;;;2.20;99.90;;;;;;5045649;28;19921;-72
2022/01/29 01:28:31;;;;;;;;;;;2.20;99.90;;;;;;5045788;28;19953;-72
2022/01/29 01:30:57;;;;;;;;;;;2.20;99.90;;;;;;5045706;28;19933;-72
2022/01/29 01:33:24;;;;;;;;;;;2.20;99.90;;;;;;5045807;28;19927;-72
2022/01/29 01:35:55;;;;;;;;;;;2.10;99.90;;;;;;5045417;28;20146;-72
2022/01/29 01:38:25;;;;;;;;;;;2.10;99.90;;;;;;5046233;28;20268;-72
2022/01/29 01:40:56;;;;;;;;;;;2.10;99.90;;;;;;5046159;28;19921;-72
2022/01/29 01:43:23;;;;;;;;;;;2.10;99.90;;;;;;5045937;28;19967;-72
2022/01/29 01:45:49;;;;;;;;;;;2.10;99.90;;;;;;5045434;28;19921;-72
2022/01/29 01:48:16;;;;;;;;;;;2.10;99.90;;;;;;5044861;28;19921;-72
2022/01/29 01:50:43;;;;;;;;;;;2.10;99.90;;;;;;5045551;28;19921;-72
2022/01/29 01:53:11;;;;;;;;;;;2.10;99.90;;;;;;5045451;28;20085;-72
2022/01/29 01:55:38;;;;;;;;;;;2.10;99.90;;;;;;5045166;28;19921;-72
2022/01/29 01:58:05;;;;;;;;;;;2.10;99.90;;;;;;5045451;28;19921;-73
2022/01/29 02:00:31;;;;;;;;;;;2.10;99.90;;;;;;5045329;28;19975;-73
2022/01/29 02:02:58;;;;;;;;;;;2.10;99.90;;;;;;5045239;28;19921;-72
2022/01/29 02:05:25;;;;;;;;;;;2.10;99.90;;;;;;5044831;28;19921;-72
2022/01/29 02:07:52;;;;;;;;;;;2.10;99.90;;;;;;5045292;28;19929;-73
2022/01/29 02:10:20;;;;;;;;;;;2.10;99.90;;;;;;5045340;28;19929;-73
2022/01/29 02:12:48;;;;;;;;;;;2.10;99.90;;;;;;5045196;28;19992;-73
2022/01/29 02:15:16;;;;;;;;;;;2.10;99.90;;;;;;5044644;28;19980;-73
2022/01/29 02:17:42;;;;;;;;;;;2.10;99.90;;;;;;5044933;28;19921;-73
2022/01/29 02:20:09;;;;;;;;;;;2.10;99.90;;;;;;5044581;28;20124;-73
2022/01/29 02:22:39;;;;;;;;;;;2.10;99.90;;;;;;5045022;28;19927;-73
2022/01/29 02:25:05;;;;;;;;;;;2.10;99.90;;;;;;5044394;28;19921;-72
2022/01/29 02:27:32;;;;;;;;;;;2.10;99.90;;;;;;5044812;28;20101;-73
2022/01/29 02:29:59;;;;;;;;;;;2.10;99.90;;;;;;5044693;28;19931;-72
2022/01/29 02:32:25;;;;;;;;;;;2.10;99.90;;;;;;5044470;28;19929;-72
2022/01/29 02:34:52;;;;;;;;;;;2.10;99.90;;;;;;5044126;28;19988;-73
2022/01/29 02:37:18;;;;;;;;;;;2.10;99.90;;;;;;5044702;28;19928;-73
2022/01/29 02:39:46;;;;;;;;;;;2.10;99.90;;;;;;5044535;28;20136;-73
2022/01/29 02:42:13;;;;;;;;;;;2.10;99.90;;;;;;5044606;28;19921;-73
2022/01/29 02:44:39;;;;;;;;;;;2.10;99.90;;;;;;5044139;28;19927;-73
2022/01/29 02:47:25;;;;;;;;;;;2.10;99.90;;;;;;5044176;28;19921;-73
2022/01/29 02:49:55;;;;;;;;;;;2.00;99.90;;;;;;5044982;28;19949;-73
2022/01/29 02:52:21;;;;;;;;;;;2.00;99.90;;;;;;5044716;28;19921;-71
2022/01/29 02:54:49;;;;;;;;;;;2.00;99.90;;;;;;5043792;28;19930;-72
2022/01/29 02:57:16;;;;;;;;;;;2.00;99.90;;;;;;5044077;28;19921;-72
2022/01/29 02:59:42;;;;;;;;;;;2.00;99.90;;;;;;5042967;28;20152;-72
2022/01/29 03:02:09;;;;;;;;;;;2.00;99.90;;;;;;5044237;28;19921;-72
2022/01/29 03:04:35;;;;;;;;;;;1.90;99.90;;;;;;5043830;28;19921;-72
2022/01/29 03:07:02;;;;;;;;;;;2.00;99.90;;;;;;5044009;28;19921;-72
2022/01/29 03:09:29;;;;;;;;;;;2.00;99.90;;;;;;5043934;28;19921;-72
2022/01/29 03:11:58;;;;;;;;;;;2.00;99.90;;;;;;5043849;28;19943;-72
2022/01/29 03:14:25;;;;;;;;;;;2.00;99.90;;;;;;5043853;28;19968;-72
2022/01/29 03:16:52;;;;;;;;;;;2.00;99.90;;;;;;5043954;28;19925;-72
2022/01/29 03:19:18;;;;;;;;;;;2.00;99.90;;;;;;5043845;28;19924;-72
2022/01/29 03:21:45;;;;;;;;;;;2.10;99.90;;;;;;5043688;28;19927;-72
2022/01/29 03:24:11;;;;;;;;;;;2.10;99.90;;;;;;5043533;28;20094;-72
2022/01/29 03:26:38;;;;;;;;;;;2.00;99.90;;;;;;5043719;28;19921;-72
2022/01/29 03:29:06;;;;;;;;;;;2.00;99.90;;;;;;5043785;28;19928;-72
2022/01/29 03:31:32;;;;;;;;;;;2.00;99.90;;;;;;5043882;28;19928;-72
2022/01/29 03:33:59;;;;;;;;;;;2.00;99.90;;;;;;5043481;28;19921;-72
2022/01/29 03:36:26;;;;;;;;;;;1.90;99.90;;;;;;5043475;28;19944;-72
2022/01/29 03:38:53;;;;;;;;;;;2.00;99.90;;;;;;5043460;28;19921;-72
2022/01/29 03:41:19;;;;;;;;;;;2.00;99.90;;;;;;5043276;28;19921;-72
2022/01/29 03:43:49;;;;;;;;;;;2.00;99.90;;;;;;5043376;28;19991;-72
2022/01/29 03:46:17;;;;;;;;;;;2.00;99.90;;;;;;5043594;28;19971;-72
2022/01/29 03:48:44;;;;;;;;;;;2.00;99.90;;;;;;5043283;28;19993;-72
2022/01/29 03:51:10;;;;;;;;;;;2.00;99.90;;;;;;5043327;28;20117;-72
2022/01/29 03:53:37;;;;;;;;;;;2.00;99.90;;;;;;5039931;28;19922;-72
2022/01/29 03:56:03;;;;;;;;;;;2.00;99.90;;;;;;5041768;28;19921;-72
2022/01/29 03:58:30;;;;;;;;;;;2.00;99.90;;;;;;5042776;28;19921;-72
2022/01/29 04:00:57;;;;;;;;;;;2.00;99.90;;;;;;5043194;28;19921;-72
2022/01/29 04:03:24;;;;;;;;;;;2.00;99.90;;;;;;5042585;28;20224;-72
2022/01/29 04:05:51;;;;;;;;;;;1.90;99.90;;;;;;5023249;28;19943;-72
2022/01/29 04:08:18;;;;;;;;;;;1.90;99.90;;;;;;5022787;28;19925;-72
2022/01/29 04:10:47;;;;;;;;;;;2.00;99.90;;;;;;5025429;28;19940;-72
2022/01/29 04:13:14;;;;;;;;;;;2.00;99.90;;;;;;5027422;28;20221;-72
2022/01/29 04:15:41;;;;;;;;;;;2.00;99.90;;;;;;5045428;28;19956;-72
2022/01/29 04:18:07;;;;;;;;;;;2.00;99.90;;;;;;5047348;28;20124;-72
2022/01/29 04:20:35;;;;;;;;;;;2.10;99.90;;;;;;5046949;28;19943;-72
2022/01/29 04:23:02;;;;;;;;;;;2.00;99.90;;;;;;5046928;28;19929;-72
2022/01/29 04:25:29;;;;;;;;;;;2.00;99.90;;;;;;5029891;28;20093;-72
2022/01/29 04:27:55;;;;;;;;;;;2.00;99.90;;;;;;5027314;28;19925;-71
2022/01/29 04:30:29;;;;;;;;;;;2.00;99.90;;;;;;5027041;28;19930;-72
2022/01/29 04:33:02;;;;;;;;;;;2.00;99.90;;;;;;5027166;28;19944;-72
2022/01/29 04:35:29;;;;;;;;;;;2.00;99.90;;;;;;5041786;28;19921;-72
2022/01/29 04:37:57;;;;;;;;;;;2.00;99.90;;;;;;5027155;28;19944;-72
2022/01/29 04:40:23;;;;;;;;;;;2.00;99.90;;;;;;5027089;28;19921;-72
2022/01/29 04:42:50;;;;;;;;;;;2.00;99.90;;;;;;5026839;28;19922;-72
2022/01/29 04:45:16;;;;;;;;;;;2.00;99.90;;;;;;5041211;28;19928;-72
2022/01/29 04:47:43;;;;;;;;;;;1.90;99.90;;;;;;5046714;28;20231;-72
2022/01/29 04:50:10;;;;;;;;;;;1.90;99.90;;;;;;5045952;28;19927;-72
2022/01/29 04:52:37;;;;;;;;;;;1.90;99.90;;;;;;5046621;28;19928;-72
2022/01/29 04:55:05;;;;;;;;;;;1.90;99.90;;;;;;5033941;28;19929;-72
2022/01/29 04:57:32;;;;;;;;;;;1.90;99.90;;;;;;5026537;28;19921;-72
2022/01/29 04:59:59;;;;;;;;;;;1.90;99.90;;;;;;5026905;28;19922;-72
2022/01/29 05:02:25;;;;;;;;;;;1.90;99.90;;;;;;5043266;28;19928;-72
2022/01/29 05:04:52;;;;;;;;;;;1.90;99.90;;;;;;5035300;28;19929;-72
2022/01/29 05:07:18;;;;;;;;;;;1.90;99.90;;;;;;5026316;28;19921;-72
2022/01/29 05:09:45;;;;;;;;;;;1.90;99.90;;;;;;5026454;28;20124;-72
2022/01/29 05:12:19;;;;;;;;;;;1.80;99.90;;;;;;5036279;28;19944;-72
2022/01/29 05:15:02;;;;;;;;;;;1.90;99.90;;;;;;5034305;28;19925;-72
2022/01/29 05:28:27;;;;;;;;;;;1.90;99.90;;;;;;5025581;28;19963;-74
2022/01/29 05:30:53;;;;;;;;;;;1.80;99.90;;;;;;5032778;28;19928;-72
2022/01/29 05:33:20;;;;;;;;;;;1.80;99.90;;;;;;5045714;28;19929;-72
2022/01/29 05:35:46;;;;;;;;;;;1.90;99.90;;;;;;5026626;28;19928;-72
2022/01/29 05:38:13;;;;;;;;;;;1.80;99.90;;;;;;5025751;28;19921;-72
2022/01/29 05:40:40;;;;;;;;;;;1.80;99.90;;;;;;5025563;28;19925;-71
2022/01/29 05:43:06;;;;;;;;;;;1.90;99.90;;;;;;5041748;28;19921;-72
2022/01/29 05:45:34;;;;;;;;;;;1.80;99.90;;;;;;5028672;28;19925;-72
2022/01/29 05:48:01;;;;;;;;;;;1.80;99.90;;;;;;5025048;28;19928;-72
2022/01/29 05:50:27;;;;;;;;;;;1.80;99.90;;;;;;5025474;28;19928;-73
2022/01/29 05:52:54;;;;;;;;;;;1.80;99.90;;;;;;5038446;28;20217;-74
2022/01/29 05:55:22;;;;;;;;;;;1.80;99.90;;;;;;5030481;28;19921;-74
2022/01/29 05:57:48;;;;;;;;;;;1.80;99.90;;;;;;5025260;28;19925;-75
2022/01/29 06:00:15;;;;;;;;;;;1.80;99.90;;;;;;5025221;28;19928;-71
2022/01/29 06:02:43;;;;;;;;;;;1.80;99.90;;;;;;5026731;28;19922;-72
2022/01/29 06:05:10;;;;;;;;;;;1.80;99.90;;;;;;5030968;28;20205;-72
2022/01/29 06:07:36;;;;;;;;;;;1.80;99.90;;;;;;5026017;28;19922;-72
2022/01/29 06:10:03;;;;;;;;;;;1.80;99.90;;;;;;5042028;28;19921;-72
2022/01/29 06:12:30;;;;;;;;;;;1.80;99.90;;;;;;5045239;28;19928;-74
2022/01/29 06:14:56;;;;;;;;;;;1.90;99.90;;;;;;5033844;28;19925;-72
2022/01/29 06:17:23;;;;;;;;;;;1.80;99.90;;;;;;5025146;28;19921;-72
2022/01/29 06:19:52;;;;;;;;;;;1.80;99.90;;;;;;5025050;28;19933;-72
2022/01/29 06:22:18;;;;;;;;;;;1.90;99.90;;;;;;5025269;28;19921;-74
2022/01/29 06:24:45;;;;;;;;;;;1.80;99.90;;;;;;5037966;28;19921;-74
2022/01/29 06:27:11;;;;;;;;;;;1.80;99.90;;;;;;5025034;28;19921;-72
2022/01/29 06:29:38;;;;;;;;;;;1.80;99.90;;;;;;5024891;28;19921;-74
2022/01/29 06:32:05;;;;;;;;;;;1.80;99.90;;;;;;5025137;28;19928;-74
2022/01/29 06:34:31;;;;;;;;;;;1.90;99.90;;;;;;5043812;28;19935;-74
2022/01/29 06:36:59;;;;;;;;;;;1.90;99.90;;;;;;5044539;28;19996;-74
2022/01/29 06:39:26;;;;;;;;;;;1.90;99.90;;;;;;5044560;28;20201;-74
2022/01/29 06:41:52;;;;;;;;;;;1.90;99.90;;;;;;5044496;28;19929;-72
2022/01/29 06:44:19;;;;;;;;;;;1.90;99.90;;;;;;5028820;28;20045;-72
2022/01/29 06:46:45;;;;;;;;;;;1.90;99.90;;;;;;5024171;28;19921;-73
2022/01/29 06:49:12;;;;;;;;;;;2.00;99.90;;;;;;5037260;28;19928;-71
2022/01/29 06:51:39;;;;;;;;;;;2.00;99.90;;;;;;5044074;28;19927;-72
2022/01/29 06:54:06;;;;;;;;;;;2.00;99.90;;;;;;5027682;28;19943;-72
2022/01/29 06:56:33;;;;;;;;;;;2.00;99.90;;;;;;5024456;28;19922;-72
2022/01/29 06:59:00;;;;;;;;;;;2.00;99.90;;;;;;5024418;28;19922;-72
2022/01/29 07:01:26;;;;;;;;;;;2.00;99.90;;;;;;5024296;28;19921;-72
2022/01/29 07:03:53;;;;;;;;;;;1.90;99.90;;;;;;5030949;28;20120;-72
2022/01/29 07:06:19;;;;;;;;;;;2.00;99.90;;;;;;5024310;28;19921;-72
2022/01/29 07:08:46;;;;;;;;;;;1.90;99.90;;;;;;5023851;28;19929;-72
2022/01/29 07:11:14;;;;;;;;;;;1.90;99.90;;;;;;5023252;28;19922;-72
2022/01/29 07:13:40;;;;;;;;;;;1.90;99.90;;;;;;5027461;28;19921;-72
2022/01/29 07:16:07;;;;;;;;;;;1.90;99.90;;;;;;5036103;28;20000;-72
2022/01/29 07:18:33;;;;;;;;;;;1.90;99.90;;;;;;5042182;28;19921;-72
2022/01/29 07:21:00;;;;;;;;;;;1.90;99.90;;;;;;5043829;28;19925;-72
2022/01/29 07:23:27;;;;;;;;;;;1.90;99.90;;;;;;5036229;28;19927;-72
2022/01/29 07:25:53;;;;;;;;;;;1.90;99.90;;;;;;5042903;28;19921;-72
2022/01/29 07:28:21;;;;;;;;;;;1.90;99.90;;;;;;5042206;28;19940;-71
2022/01/29 07:30:48;;;;;;;;;;;1.90;99.90;;;;;;5039398;28;19929;-72
2022/01/29 07:33:14;;;;;;;;;;;1.90;99.90;;;;;;5035013;28;19921;-72
2022/01/29 07:35:41;;;;;;;;;;;1.90;99.90;;;;;;5039241;28;20120;-72
2022/01/29 07:38:07;;;;;;;;;;;1.90;99.90;;;;;;5043376;28;19921;-72
2022/01/29 07:40:34;;;;;;;;;;;1.90;99.90;;;;;;5038386;28;19925;-72
2022/01/29 07:43:00;;;;;;;;;;;1.90;99.90;;;;;;5036728;28;19922;-72
2022/01/29 07:45:29;;;;;;;;;;;1.90;99.90;;;;;;5022710;28;19937;-72
2022/01/29 07:47:56;;;;;;;;;;;1.90;99.90;;;;;;5043202;28;19921;-74
2022/01/29 07:50:23;;;;;;;;;;;1.90;99.90;;;;;;5043410;28;19921;-74
2022/01/29 07:52:49;;;;;;;;;;;1.90;99.90;;;;;;5038079;28;19922;-72
2022/01/29 07:55:16;;;;;;;;;;;1.90;99.90;;;;;;5026601;28;20234;-72
2022/01/29 07:57:42;;;;;;;;;;;1.90;99.90;;;;;;5026130;28;19921;-71
2022/01/29 08:00:09;;;;;;;;;;;1.90;99.90;;;;;;5042692;28;19925;-74
2022/01/29 08:02:37;;;;;;;;;;;1.90;99.90;;;;;;5040621;28;19928;-73
2022/01/29 08:05:04;;;;;;;;;;;1.90;99.90;;;;;;5029121;28;19921;-73
2022/01/29 08:07:31;;;;;;;;;;;1.90;99.90;;;;;;5040761;28;19925;-74
2022/01/29 08:09:57;;;;;;;;;;;1.80;99.90;;;;;;5042799;28;20121;-71
2022/01/29 08:12:24;;;;;;;;;;;1.80;99.90;;;;;;5042047;28;19936;-71
2022/01/29 08:14:50;;;;;;;;;;;1.90;99.90;;;;;;5023217;28;19921;-72
2022/01/29 08:17:17;;;;;;;;;;;1.80;99.90;;;;;;5041703;28;19921;-72
2022/01/29 08:19:45;;;;;;;;;;;1.90;99.90;;;;;;5042922;28;20252;-72
2022/01/29 08:22:12;;;;;;;;;;;1.80;99.90;;;;;;5042521;28;19921;-72
2022/01/29 08:24:39;;;;;;;;;;;1.90;99.90;;;;;;5050207;28;19920;-72
2022/01/29 08:27:06;;;;;;;;;;;1.90;99.90;;;;;;5056332;28;19925;-72
2022/01/29 08:29:33;;;;;;;;;;;1.90;99.90;;;;;;5043177;28;19921;-72
2022/01/29 08:31:59;;;;;;;;;;;1.80;99.90;;;;;;5042741;28;19927;-72
2022/01/29 08:34:26;;;;;;;;;;;1.80;99.90;;;;;;5028005;28;19928;-72
2022/01/29 08:36:57;;;;;;;;;;;1.80;99.90;;;;;;5062627;28;19984;-72
2022/01/29 08:39:24;;;;;;;;;;;1.80;99.90;;;;;;5051576;28;19925;-73
2022/01/29 08:41:51;;;;;;;;;;;1.80;99.90;;;;;;5036369;28;19961;-72
2022/01/29 08:44:18;;;;;;;;;;;1.80;99.90;;;;;;5029456;28;19921;-72
2022/01/29 08:46:44;;;;;;;;;;;1.80;99.90;;;;;;5045991;28;19921;-72
2022/01/29 08:49:11;;;;;;;;;;;1.80;99.90;;;;;;5042630;28;19921;-71
2022/01/29 08:51:37;;;;;;;;;;;1.90;99.90;;;;;;5040330;28;20094;-71
2022/01/29 08:54:05;;;;;;;;;;;1.90;99.90;;;;;;5039286;28;19921;-72
2022/01/29 08:56:32;;;;;;;;;;;1.80;99.90;;;;;;5044152;28;19921;-72
2022/01/29 08:58:59;;;;;;;;;;;1.90;99.90;;;;;;5046345;28;19928;-72
2022/01/29 09:01:25;;;;;;;;;;;1.90;99.90;;;;;;5034195;28;19921;-72
2022/01/29 09:03:52;;;;;;;;;;;1.90;99.90;;;;;;5042310;28;19925;-72
2022/01/29 09:06:19;;;;;;;;;;;1.80;99.90;;;;;;5044706;28;19928;-72
2022/01/29 09:08:49;;;;;;;;;;;1.90;99.90;;;;;;5045763;28;19933;-72
2022/01/29 09:11:17;;;;;;;;;;;1.90;99.90;;;;;;5041049;28;19957;-72
2022/01/29 09:13:43;;;;;;;;;;;1.90;99.90;;;;;;5039645;28;20236;-72
2022/01/29 09:16:10;;;;;;;;;;;1.90;99.90;;;;;;5045530;28;20112;-72
2022/01/29 09:18:36;;;;;;;;;;;1.90;99.90;;;;;;5042414;28;19921;-72
2022/01/29 09:21:03;;;;;;;;;;;2.00;99.90;;;;;;5043438;28;19921;-72
2022/01/29 09:23:30;;;;;;;;;;;2.00;99.90;;;;;;5044042;28;20082;-72
2022/01/29 09:25:57;;;;;;;;;;;2.00;99.90;;;;;;5045059;28;20225;-72
2022/01/29 09:28:25;;;;;;;;;;;2.10;99.90;;;;;;5045371;28;19921;-72
2022/01/29 09:30:52;;;;;;;;;;;2.10;99.90;;;;;;5046738;28;19921;-72
2022/01/29 09:33:18;;;;;;;;;;;2.10;99.90;;;;;;5044526;28;19936;-71
2022/01/29 09:35:45;;;;;;;;;;;2.20;99.90;;;;;;5044576;28;19984;-72
2022/01/29 09:38:14;;;;;;;;;;;2.20;99.90;;;;;;5048656;28;19927;-71
2022/01/29 09:40:42;;;;;;;;;;;2.20;99.90;;;;;;5046591;28;19921;-73
2022/01/29 09:43:09;;;;;;;;;;;2.30;99.90;;;;;;5045890;28;19927;-71
2022/01/29 09:45:38;;;;;;;;;;;2.30;99.90;;;;;;5045290;28;19958;-73
2022/01/29 09:48:05;;;;;;;;;;;2.30;99.90;;;;;;5046025;28;19928;-72
2022/01/29 09:50:32;;;;;;;;;;;2.30;99.90;;;;;;5043305;28;19922;-72
2022/01/29 09:53:00;;;;;;;;;;;2.30;99.90;;;;;;5049628;28;19928;-72
2022/01/29 09:55:26;;;;;;;;;;;2.30;99.90;;;;;;5046555;28;19931;-71
2022/01/29 09:57:53;;;;;;;;;;;2.30;99.90;;;;;;5048712;28;19921;-70
2022/01/29 10:00:20;;;;;;;;;;;2.30;99.90;;;;;;5045414;28;20120;-71
2022/01/29 10:03:14;;;;;;;;;;;2.30;99.90;;;;;;5044926;28;19943;-71
2022/01/29 10:05:41;;;;;;;;;;;2.30;99.90;;;;;;5045273;28;19920;-70
2022/01/29 10:08:09;;;;;;;;;;;2.30;99.90;;;;;;5044393;28;19928;-70
2022/01/29 10:10:38;;;;;;;;;;;2.30;99.90;;;;;;5045142;28;20231;-71
2022/01/29 10:13:21;;;;;;;;;;;2.30;99.90;;;;;;5048417;28;19921;-71
2022/01/29 10:15:47;;;;;;;;;;;2.30;99.90;;;;;;5044816;28;19927;-71
2022/01/29 10:18:21;;;;;;;;;;;2.30;99.90;;;;;;5047867;28;19932;-71
2022/01/29 10:20:48;;;;;;;;;;;2.40;99.90;;;;;;5047991;28;19964;-71
2022/01/29 10:23:15;;;;;;;;;;;2.40;99.90;;;;;;5044849;28;19936;-71
2022/01/29 10:25:42;;;;;;;;;;;2.40;99.90;;;;;;5044187;28;20213;-71
2022/01/29 10:28:11;;;;;;;;;;;2.40;99.90;;;;;;5045550;28;19921;-70
2022/01/29 10:30:38;;;;;;;;;;;2.50;99.90;;;;;;5045164;28;20364;-70
2022/01/29 10:33:18;;;;;;;;;;;2.50;99.90;;;;;;5055918;28;19921;-71
2022/01/29 10:35:47;;;;;;;;;;;2.50;99.90;;;;;;5052501;28;19921;-75
2022/01/29 10:38:13;;;;;;;;;;;2.60;99.90;;;;;;5050995;28;19987;-71
2022/01/29 10:40:40;;;;;;;;;;;2.60;99.90;;;;;;5051589;28;19921;-71
2022/01/29 10:43:07;;;;;;;;;;;2.60;99.90;;;;;;5048389;28;20223;-73
2022/01/29 10:45:34;;;;;;;;;;;2.70;99.90;;;;;;5045754;28;19921;-74
2022/01/29 10:48:03;;;;;;;;;;;2.60;99.90;;;;;;5044626;28;19921;-72
2022/01/29 10:50:29;;;;;;;;;;;2.60;99.90;;;;;;5044770;28;19987;-73
2022/01/29 10:52:58;;;;;;;;;;;2.70;99.90;;;;;;5052018;28;19920;-74
2022/01/29 10:55:25;;;;;;;;;;;2.70;99.90;;;;;;5048484;28;19929;-72
2022/01/29 10:57:52;;;;;;;;;;;2.80;99.90;;;;;;5042938;28;20209;-73
2022/01/29 11:00:21;;;;;;;;;;;2.80;99.90;;;;;;5044521;28;19925;-72
2022/01/29 11:02:48;;;;;;;;;;;2.70;99.90;;;;;;5050161;28;19920;-74
2022/01/29 11:05:15;;;;;;;;;;;2.70;99.90;;;;;;5040693;28;19921;-74
2022/01/29 11:07:45;;;;;;;;;;;2.70;99.90;;;;;;5044209;28;20252;-70
2022/01/29 11:10:13;;;;;;;;;;;2.70;99.90;;;;;;5043992;28;19944;-73
2022/01/29 11:12:42;;;;;;;;;;;2.80;99.90;;;;;;5038857;28;19921;-71
2022/01/29 11:15:10;;;;;;;;;;;2.70;99.90;;;;;;5044155;28;20094;-72
2022/01/29 11:20:19;;;;;;;;;;;2.70;99.90;;;;;;5039986;28;19925;-72
2022/01/29 11:22:46;;;;;;;;;;;2.80;99.90;;;;;;5038814;28;19921;-73
2022/01/29 11:25:16;;;;;;;;;;;2.80;99.90;;;;;;5041762;28;19968;-74
2022/01/29 11:27:43;;;;;;;;;;;2.70;99.90;;;;;;5036242;28;19921;-71
2022/01/29 11:30:13;;;;;;;;;;;2.70;99.90;;;;;;5038784;28;19921;-73
2022/01/29 11:32:42;;;;;;;;;;;2.70;99.90;;;;;;5043021;28;19959;-72
2022/01/29 11:35:16;;;;;;;;;;;2.80;99.90;;;;;;5043261;28;19921;-72
2022/01/29 11:37:44;;;;;;;;;;;2.80;99.90;;;;;;5042090;28;20212;-72
2022/01/29 11:40:17;;;;;;;;;;;2.80;99.90;;;;;;5040940;28;19933;-72
2022/01/29 11:43:05;;;;;;;;;;;2.80;99.90;;;;;;5044604;28;19927;-72
2022/01/29 11:45:44;;;;;;;;;;;2.80;99.90;;;;;;5036511;28;20216;-72
2022/01/29 11:48:32;;;;;;;;;;;2.80;99.90;;;;;;5042427;28;19944;-72
2022/01/29 11:50:59;;;;;;;;;;;2.80;99.90;;;;;;5046393;28;20104;-73
2022/01/29 11:53:26;;;;;;;;;;;2.90;99.90;;;;;;5047816;28;19921;-72
2022/01/29 11:55:55;;;;;;;;;;;2.90;99.90;;;;;;5054783;28;20235;-73
2022/01/29 11:58:23;;;;;;;;;;;3.00;99.90;;;;;;5050871;28;19921;-74
2022/01/29 12:00:51;;;;;;;;;;;3.00;99.90;;;;;;5049417;28;20227;-73
2022/01/29 12:03:38;;;;;;;;;;;3.10;99.90;;;;;;5049610;28;20070;-73
2022/01/29 12:06:13;;;;;;;;;;;3.10;99.90;;;;;;5036086;28;20212;-73
2022/01/29 12:09:05;;;;;;;;;;;3.20;99.90;;;;;;5027208;28;20121;-73
2022/01/29 12:11:33;;;;;;;;;;;3.10;99.90;;;;;;5043131;28;20113;-74
2022/01/29 12:14:19;;;;;;;;;;;3.20;99.90;;;;;;5035305;28;19921;-73
2022/01/29 12:16:48;;;;;;;;;;;3.20;99.90;;;;;;5036958;28;20155;-73
2022/01/29 12:19:29;;;;;;;;;;;3.30;99.90;;;;;;5041096;28;19920;-73
2022/01/29 12:21:56;;;;;;;;;;;3.20;99.90;;;;;;5022453;28;20213;-73
2022/01/29 12:24:22;;;;;;;;;;;3.20;99.90;;;;;;5037928;28;19992;-73
2022/01/29 12:26:54;;;;;;;;;;;3.20;99.90;;;;;;5027665;28;19921;-74
2022/01/29 12:29:22;;;;;;;;;;;3.30;99.90;;;;;;5050434;28;19921;-74
2022/01/29 12:31:49;;;;;;;;;;;3.30;99.90;;;;;;5045442;28;19929;-73
2022/01/29 12:34:15;;;;;;;;;;;3.30;99.90;;;;;;5031028;28;20280;-73
2022/01/29 12:36:42;;;;;;;;;;;3.30;99.90;;;;;;5047053;28;19921;-75
2022/01/29 12:39:10;;;;;;;;;;;3.30;99.90;;;;;;5050304;28;20116;-73
2022/01/29 12:41:39;;;;;;;;;;;3.30;99.90;;;;;;5061211;28;19921;-73
2022/01/29 12:44:08;;;;;;;;;;;3.40;99.90;;;;;;5046075;28;19952;-73
2022/01/29 12:46:36;;;;;;;;;;;3.40;99.90;;;;;;5036818;28;19935;-73
2022/01/29 12:49:06;;;;;;;;;;;3.40;99.90;;;;;;5054577;28;19928;-72
2022/01/29 12:51:33;;;;;;;;;;;3.50;99.90;;;;;;5061156;28;20023;-74
2022/01/29 12:54:00;;;;;;;;;;;3.50;99.90;;;;;;5040002;28;19921;-73
2022/01/29 12:56:30;;;;;;;;;;;3.50;99.90;;;;;;5053635;28;20208;-74
2022/01/29 12:58:57;;;;;;;;;;;3.50;99.90;;;;;;5048914;28;19921;-70
2022/01/29 13:01:25;;;;;;;;;;;3.50;99.90;;;;;;5045943;28;19943;-73
2022/01/29 13:03:59;;;;;;;;;;;3.60;99.90;;;;;;5040732;28;19992;-72
2022/01/29 13:06:26;;;;;;;;;;;3.60;99.90;;;;;;5049381;28;19921;-73
2022/01/29 13:09:14;;;;;;;;;;;3.60;99.90;;;;;;5054768;28;19927;-73
2022/01/29 13:11:41;;;;;;;;;;;3.60;99.90;;;;;;5041676;28;19921;-73
2022/01/29 13:14:11;;;;;;;;;;;3.60;99.90;;;;;;5046768;28;19980;-73
2022/01/29 13:16:39;;;;;;;;;;;3.60;99.90;;;;;;5052062;28;19920;-71
2022/01/29 13:19:06;;;;;;;;;;;3.60;99.90;;;;;;5066386;28;19944;-74
2022/01/29 13:21:33;;;;;;;;;;;3.60;99.90;;;;;;5054164;28;19921;-72
2022/01/29 13:24:00;;;;;;;;;;;3.60;99.90;;;;;;5042319;28;19921;-72
2022/01/29 13:26:29;;;;;;;;;;;3.60;99.90;;;;;;5027945;28;19921;-72
2022/01/29 13:29:00;;;;;;;;;;;3.70;99.90;;;;;;5063327;28;19954;-72
2022/01/29 13:31:28;;;;;;;;;;;3.70;99.90;;;;;;5052424;28;19959;-72
2022/01/29 13:34:04;;;;;;;;;;;3.80;99.90;;;;;;5064531;28;19949;-72
2022/01/29 13:36:31;;;;;;;;;;;3.80;99.90;;;;;;5066051;28;19944;-72
2022/01/29 13:39:06;;;;;;;;;;;3.80;99.90;;;;;;5051260;28;20265;-72
2022/01/29 13:41:32;;;;;;;;;;;3.80;99.90;;;;;;5052418;28;19943;-72
2022/01/29 13:44:07;;;;;;;;;;;3.80;99.90;;;;;;5064479;28;19929;-73
2022/01/29 13:46:34;;;;;;;;;;;3.80;99.90;;;;;;5066004;28;19921;-72
2022/01/29 13:49:03;;;;;;;;;;;3.90;99.90;;;;;;5057363;28;19921;-72
2022/01/29 13:51:30;;;;;;;;;;;3.90;99.90;;;;;;5048641;28;19985;-72
2022/01/29 13:53:58;;;;;;;;;;;3.90;99.90;;;;;;5040994;28;19921;-72
2022/01/29 13:56:25;;;;;;;;;;;3.90;99.90;;;;;;5046169;28;19921;-72
2022/01/29 13:58:53;;;;;;;;;;;3.90;99.90;;;;;;5054311;28;19921;-72
2022/01/29 14:01:37;;;;;;;;;;;3.90;99.90;;;;;;5049818;28;19921;-72
2022/01/29 14:04:05;;;;;;;;;;;4.00;99.90;;;;;;5045764;28;19928;-73
2022/01/29 14:06:34;;;;;;;;;;;4.00;99.90;;;;;;5041926;28;19921;-72
2022/01/29 14:09:30;;;;;;;;;;;4.10;99.90;;;;;;5045966;28;19925;-72
2022/01/29 14:12:21;;;;;;;;;;;4.10;99.90;;;;;;5053696;28;19959;-72
2022/01/29 14:14:48;;;;;;;;;;;4.10;99.90;;;;;;5040805;28;19921;-72
2022/01/29 14:17:16;;;;;;;;;;;4.20;99.90;;;;;;5025846;28;19990;-72
2022/01/29 14:19:45;;;;;;;;;;;4.20;99.90;;;;;;5025930;28;20153;-72
2022/01/29 14:22:12;;;;;;;;;;;4.20;99.90;;;;;;5025600;28;19941;-72
2022/01/29 14:24:40;;;;;;;;;;;4.30;99.90;;;;;;5046107;28;20239;-71
2022/01/29 14:27:07;;;;;;;;;;;4.30;99.90;;;;;;5052463;28;19924;-72
2022/01/29 14:29:35;;;;;;;;;;;4.30;99.90;;;;;;5065234;28;19927;-72
2022/01/29 14:32:01;;;;;;;;;;;4.30;99.90;;;;;;5065021;28;19927;-72
2022/01/29 14:34:28;;;;;;;;;;;4.30;99.90;;;;;;5059332;28;19925;-73
2022/01/29 14:36:58;;;;;;;;;;;4.30;99.90;;;;;;5065312;28;19943;-72
2022/01/29 14:39:25;;;;;;;;;;;4.30;99.90;;;;;;5065003;28;20216;-73
2022/01/29 14:41:52;;;;;;;;;;;4.40;99.90;;;;;;5029854;28;19921;-73
2022/01/29 14:44:19;;;;;;;;;;;4.30;99.90;;;;;;5036620;28;19925;-73
2022/01/29 14:46:46;;;;;;;;;;;4.40;99.90;;;;;;5064495;28;19931;-73
2022/01/29 14:49:12;;;;;;;;;;;4.40;99.90;;;;;;5064779;28;19920;-73